• Join FlightAware (Why Join?)
  • Login
  • US Flag 
08:53PM EDT


 

Airport Tracker/Info


-or-


 

Live Flight TrackerFlight Track Log ✈ FLG3776 ✈ 21-Feb-2014 ✈ KMSP - KAZO

Flight Track Log - Related Links

Times and Time Zones

All times are in EST time to prevent confusion due to time zone crossing. See the FLG3776 flight status page for this flight to view local times or setup timezone preferences in your user account.

Time Position Orientation Groundspeed Altitude Reporting Facility
EST Latitude Longitude Course Direction KTS MPH feet Rate Location/Type
08:51PM 44.9000 -93.2333 19° North 143 165 2,200  Level Minneapolis TRACON
08:52PM 44.9333 -93.2167 19° North 196 226 4,900 2,280 Climbing Minneapolis TRACON
08:53PM 44.9247 -93.1047 96° East 303 349 7,200 2,280 Climbing Minneapolis Center
08:54PM 44.8789 -92.9931 120° Southeast 324 373 9,900 2,700 Climbing Minneapolis Center
08:55PM 44.8319 -92.8778 120° Southeast 335 386 12,800 2,580 Climbing Minneapolis Center
08:56PM 44.7842 -92.7614 120° Southeast 342 394 15,300 2,280 Climbing Minneapolis Center
08:57PM 44.7356 -92.6433 120° Southeast 349 402 17,600 1,740 Climbing Minneapolis Center
08:58PM 44.6842 -92.5181 120° Southeast 363 418 19,000 1,620 Climbing Minneapolis Center
08:59PM 44.6300 -92.3861 120° Southeast 382 440 21,000 1,620 Climbing Minneapolis Center
09:00PM 44.5631 -92.2286 121° Southeast 393 452 22,400 1,200 Climbing Minneapolis Center
09:01PM 44.4989 -92.0961 124° Southeast 407 468 23,500 900 Climbing Minneapolis Center
09:02PM 44.4289 -91.9642 127° Southeast 418 481 24,300 900 Climbing Minneapolis Center
09:03PM 44.3614 -91.8294 125° Southeast 422 486 25,400 780 Climbing Minneapolis Center
09:04PM 44.3042 -91.6792 118° Southeast 434 499 25,900 480 Climbing Minneapolis Center
09:05PM 44.2456 -91.5258 118° Southeast 444 511 26,400 480 Climbing Minneapolis Center
09:06PM 44.1856 -91.3683 118° Southeast 456 525 26,900 600 Climbing Minneapolis Center
09:07PM 44.1167 -91.1881 118° Southeast 462 532 27,700 720 Climbing Minneapolis Center
09:08PM 44.0558 -91.0322 118° Southeast 462 532 28,400 660 Climbing Minneapolis Center
09:09PM 43.9961 -90.8778 118° Southeast 458 527 29,100 660 Climbing Minneapolis Center
09:10PM 43.9347 -90.7253 119° Southeast 455 524 29,800 720 Climbing Minneapolis Center
09:11PM 43.8656 -90.5481 118° Southeast 451 519 30,600 720 Climbing Minneapolis Center
09:13PM 43.8053 -90.3972 119° Southeast 449 517 31,300 660 Climbing Minneapolis Center
09:14PM 43.7442 -90.2422 119° Southeast 445 512 32,000 600 Climbing Minneapolis Center
09:15PM 43.6886 -90.0958 118° Southeast 446 513 32,600 480 Climbing Minneapolis Center
09:16PM 43.6419 -89.9339 112° Southeast 453 521 33,000 180 Climbing Minneapolis Center
09:17PM 43.5836 -89.7372 112° Southeast 461 531 33,000  Level Minneapolis Center
09:18PM 43.5336 -89.5686 112° Southeast 471 542 33,000  Level Minneapolis Center
09:19PM 43.4822 -89.3953 112° Southeast 484 557 33,000  Level Minneapolis Center
09:20PM 43.4292 -89.2222 113° Southeast 489 563 33,000  Level Minneapolis Center
09:21PM 43.3758 -89.0481 113° Southeast 495 570 33,000  Level Minneapolis Center
09:22PM 43.3233 -88.8739 112° Southeast 497 572 33,000  Level Minneapolis Center
09:23PM 43.2597 -88.6681 113° Southeast 498 573 33,000  Level Minneapolis Center
09:24PM 43.2067 -88.4983 113° Southeast 496 571 33,000  Level Minneapolis Center
09:25PM 43.1525 -88.3275 113° Southeast 496 571 33,000  Level Minneapolis Center
09:26PM 43.0978 -88.1558 114° Southeast 496 571 33,000 -300 Level Minneapolis Center
09:27PM 43.0317 -87.9478 113° Southeast 500 575 32,400 -1,080 Descending Minneapolis Center
09:28PM 42.9642 -87.7339 113° Southeast 510 587 30,500 -1,440 Descending Chicago Center
09:29PM 42.9067 -87.5564 114° Southeast 514 592 29,000 -1,560 Descending Chicago Center
09:30PM 42.8475 -87.3711 113° Southeast 506 582 27,400 -1,500 Descending Chicago Center
09:31PM 42.7903 -87.2006 115° Southeast 499 574 25,900 -1,980 Descending Chicago Center
09:32PM 42.7236 -86.9961 114° Southeast 497 572 23,400 -2,400 Descending Chicago Center
09:33PM 42.6711 -86.8356 114° Southeast 468 539 21,100 -2,160 Descending Chicago Center
09:34PM 42.6192 -86.6836 115° Southeast 450 518 19,000 -2,280 Descending Chicago Center
09:35PM 42.5675 -86.5294 114° Southeast 451 519 16,500 -2,460 Descending Chicago Center
09:37PM 42.5200 -86.3867 114° Southeast 422 486 14,000 -2,460 Descending Chicago Center
09:38PM 42.4731 -86.2494 115° Southeast 407 468 11,500 -1,920 Descending Chicago Center
09:39PM 42.4242 -86.1019 114° Southeast 355 409 10,100 -1,560 Descending Chicago Center
09:40PM 42.3867 -85.9919 115° Southeast 332 382 8,400 -1,800 Descending Chicago Center
09:41PM 42.3764 -85.8781 97° East 313 360 6,400 -1,800 Descending Chicago Center
09:42PM 42.3689 -85.7689 95° East 300 345 4,700 -1,620 Descending Chicago Center
09:43PM 42.3636 -85.6681 94° East 282 325 3,200 -1,020 Descending Chicago Center
09:44PM 42.3458 -85.5883 107° East 238 274 2,700 -540 Descending Chicago Center
09:45PM 42.3100 -85.5650 154° Southeast 155 178 2,200 -600 Descending Chicago Center
09:46PM 42.2708 -85.5583 173° South 132 152 1,500 -360 Descending Chicago Center
09:47PM 42.2364 -85.5519 172° South 131 151 1,500  Level Chicago Center